Time;durP1;ratioP1;P1;durP2;ratioP2;P2;SDS_P1;SDS_P2;PMS_P1;PMS_P2;Temp;Humidity;BMP_temperature;BMP_pressure;BME280_temperature;BME280_humidity;BME280_pressure;Samples;Min_cycle;Max_cycle;Signal;HPM_P1;HPM_P2
2022/01/14 00:01:04;;;;;;;;;;;;;;;;;;;;;
2022/01/14 00:04:26;;;;;;;;;;;;;;;;;;;;;
2022/01/14 00:10:47;;;;;;;;;;;;;;;;;;;;;
2022/01/14 00:33:37;;;;;;;34.03;19.52;;;5.10;99.90;;;;;;5996003;23;20100;-92
2022/01/14 00:36:23;;;;;;;;;;;;;;;;;;;;;
2022/01/14 00:39:24;;;;;;;;;;;;;;;;;;;;;
2022/01/14 00:42:22;;;;;;;31.92;18.25;;;5.10;99.90;;;;;;6013695;23;20074;-93
2022/01/14 00:45:12;;;;;;;;;;;;;;;;;;;;;
2022/01/14 00:48:00;;;;;;;31.02;18.63;;;5.10;99.90;;;;;;5992550;23;20550;-94
2022/01/14 00:50:53;;;;;;;36.55;20.25;;;5.10;99.90;;;;;;6037194;23;20109;-93
2022/01/14 00:53:40;;;;;;;34.88;20.45;;;5.10;99.90;;;;;;6154135;23;20010;-93
2022/01/14 00:59:50;;;;;;;34.47;20.27;;;5.10;99.90;;;;;;6043227;23;20008;-93
2022/01/14 01:02:48;;;;;;;34.97;20.50;;;5.20;99.90;;;;;;6155775;23;20017;-93
2022/01/14 01:05:53;;;;;;;34.15;19.65;;;5.20;99.90;;;;;;6109684;23;20092;-93
2022/01/14 01:08:59;;;;;;;;;;;;;;;;;;;;;
2022/01/14 01:11:49;;;;;;;;;;;;;;;;;;;;;
2022/01/14 01:15:15;;;;;;;33.63;19.63;;;5.10;99.90;;;;;;6129871;23;20045;-92
2022/01/14 01:18:11;;;;;;;;;;;;;;;;;;;;;
2022/01/14 01:24:16;;;;;;;;;;;;;;;;;;;;;
2022/01/14 01:27:21;;;;;;;;;;;;;;;;;;;;;
2022/01/14 01:30:37;;;;;;;;;;;;;;;;;;;;;
2022/01/14 01:33:47;;;;;;;33.22;20.13;;;5.10;99.90;;;;;;6131390;23;20093;-94
2022/01/14 01:43:53;;;;;;;;;;;;;;;;;;;;;
2022/01/14 01:50:23;;;;;;;32.30;18.98;;;5.10;99.90;;;;;;5985262;24;20008;-92
2022/01/14 01:56:41;;;;;;;;;;;;;;;;;;;;;
2022/01/14 02:03:19;;;;;;;;;;;;;;;;;;;;;
2022/01/14 02:06:29;;;;;;;38.58;20.42;;;5.10;99.90;;;;;;6132888;23;20037;-93
2022/01/14 02:16:15;;;;;;;35.00;19.48;;;5.10;99.90;;;;;;6116259;23;19901;-92
2022/01/14 02:28:06;;;;;;;;;;;;;;;;;;;;;
2022/01/14 02:31:15;;;;;;;32.22;20.25;;;5.00;99.90;;;;;;6034527;23;20095;-93
2022/01/14 02:47:42;;;;;;;;;;;;;;;;;;;;;
2022/01/14 02:50:35;;;;;;;;;;;;;;;;;;;;;
2022/01/14 02:53:55;;;;;;;;;;;;;;;;;;;;;
2022/01/14 02:57:04;;;;;;;;;;;;;;;;;;;;;
2022/01/14 03:00:22;;;;;;;;;;;;;;;;;;;;;
2022/01/14 03:03:27;;;;;;;;;;;;;;;;;;;;;
2022/01/14 03:06:25;;;;;;;29.95;18.20;;;4.90;99.90;;;;;;6147809;23;20005;-93
2022/01/14 03:09:41;;;;;;;;;;;;;;;;;;;;;
2022/01/14 03:12:43;;;;;;;;;;;;;;;;;;;;;
2022/01/14 03:15:32;;;;;;;32.95;18.52;;;4.90;99.90;;;;;;6169790;23;20021;-94
2022/01/14 03:18:31;;;;;;;32.92;19.38;;;4.90;99.90;;;;;;6139559;23;20005;-92
2022/01/14 03:28:13;;;;;;;;;;;;;;;;;;;;;
2022/01/14 03:34:27;;;;;;;;;;;;;;;;;;;;;
2022/01/14 03:37:43;;;;;;;29.55;18.30;;;4.90;99.90;;;;;;6139795;23;20040;-92
2022/01/14 03:40:12;;;;;;;32.80;18.05;;;5.00;99.90;;;;;;6166514;23;20085;-93
2022/01/14 03:43:12;;;;;;;;;;;;;;;;;;;;;
2022/01/14 03:46:08;;;;;;;32.20;19.25;;;5.00;99.90;;;;;;6137672;23;20074;-92
2022/01/14 03:49:17;;;;;;;;;;;;;;;;;;;;;
2022/01/14 03:52:31;;;;;;;;;;;;;;;;;;;;;
2022/01/14 03:55:03;;;;;;;32.15;19.52;;;4.90;99.90;;;;;;6135579;23;20016;-94
2022/01/14 03:58:13;;;;;;;34.08;19.67;;;4.90;99.90;;;;;;6138723;23;20064;-94
2022/01/14 04:00:46;;;;;;;32.75;19.52;;;4.90;99.90;;;;;;6162721;23;20048;-94
2022/01/14 04:03:42;;;;;;;35.38;19.98;;;4.90;99.90;;;;;;6113457;23;20016;-94
2022/01/14 04:10:12;;;;;;;;;;;;;;;;;;;;;
2022/01/14 04:13:01;;;;;;;;;;;;;;;;;;;;;
2022/01/14 04:16:01;;;;;;;32.50;19.00;;;4.90;99.90;;;;;;6161862;23;20040;-93
2022/01/14 04:19:14;;;;;;;35.97;20.95;;;5.00;99.90;;;;;;6143248;23;19992;-92
2022/01/14 04:25:11;;;;;;;;;;;;;;;;;;;;;
2022/01/14 04:27:58;;;;;;;41.13;21.10;;;4.90;99.90;;;;;;6163042;23;20017;-92
2022/01/14 04:30:54;;;;;;;;;;;;;;;;;;;;;
2022/01/14 04:33:38;;;;;;;;;;;;;;;;;;;;;
2022/01/14 04:36:10;;;;;;;40.42;21.88;;;4.90;99.90;;;;;;6184336;23;20017;-94
2022/01/14 04:43:07;;;;;;;43.53;20.85;;;4.80;99.90;;;;;;6183676;23;20020;-92
2022/01/14 04:45:48;;;;;;;33.05;18.75;;;4.80;99.90;;;;;;6144057;23;20100;-91
2022/01/14 04:48:52;;;;;;;;;;;;;;;;;;;;;
2022/01/14 05:01:30;;;;;;;32.13;19.10;;;4.90;99.90;;;;;;6043690;23;20043;-93
2022/01/14 05:04:13;;;;;;;;;;;;;;;;;;;;;
2022/01/14 05:07:35;;;;;;;;;;;;;;;;;;;;;
2022/01/14 05:10:34;;;;;;;33.95;19.50;;;4.90;99.90;;;;;;6043948;23;20049;-93
2022/01/14 05:16:48;;;;;;;;;;;;;;;;;;;;;
2022/01/14 05:19:34;;;;;;;;;;;;;;;;;;;;;
2022/01/14 05:22:21;;;;;;;;;;;;;;;;;;;;;
2022/01/14 05:28:22;;;;;;;34.08;18.83;;;4.90;99.90;;;;;;6134193;23;20010;-93
2022/01/14 05:30:58;;;;;;;;;;;;;;;;;;;;;
2022/01/14 05:33:50;;;;;;;32.00;18.40;;;4.90;99.90;;;;;;6161502;23;20085;-93
2022/01/14 05:36:44;;;;;;;30.80;18.02;;;4.90;99.90;;;;;;6157618;23;20009;-92
2022/01/14 05:39:35;;;;;;;30.17;17.55;;;4.90;99.90;;;;;;6134641;23;20004;-91
2022/01/14 05:42:24;;;;;;;;;;;4.90;99.90;;;;;;6112646;23;20029;-92
2022/01/14 05:45:38;;;;;;;31.67;18.20;;;5.00;99.90;;;;;;6107188;23;19952;-93
2022/01/14 05:51:53;;;;;;;31.45;17.85;;;4.90;99.90;;;;;;6131026;23;20371;-92
2022/01/14 05:54:36;;;;;;;;;;;;;;;;;;;;;
2022/01/14 05:57:40;;;;;;;;;;;;;;;;;;;;;
2022/01/14 06:00:34;;;;;;;;;;;;;;;;;;;;;
2022/01/14 06:03:21;;;;;;;;;;;;;;;;;;;;;
2022/01/14 06:05:55;;;;;;;31.67;18.05;;;5.00;99.90;;;;;;6153408;23;20002;-93
2022/01/14 06:17:24;;;;;;;35.97;17.48;;;5.00;99.90;;;;;;6113922;23;20010;-91
2022/01/14 06:20:26;;;;;;;;;;;;;;;;;;;;;
2022/01/14 06:23:16;;;;;;;28.92;17.70;;;4.90;99.90;;;;;;6131963;23;20025;-92
2022/01/14 06:25:49;;;;;;;28.02;16.55;;;4.90;99.90;;;;;;6147460;23;20010;-91
2022/01/14 06:28:46;;;;;;;25.67;16.85;;;5.00;99.90;;;;;;6130181;23;20061;-91
2022/01/14 06:31:19;;;;;;;28.73;16.80;;;5.00;99.90;;;;;;6145601;23;20013;-92
2022/01/14 06:34:43;;;;;;;26.23;16.27;;;5.00;99.90;;;;;;6131097;23;20002;-93
2022/01/14 06:40:39;;;;;;;29.15;17.08;;;5.00;99.90;;;;;;6042840;23;20014;-94
2022/01/14 06:43:18;;;;;;;;;;;;;;;;;;;;;
2022/01/14 06:46:08;;;;;;;29.92;16.52;;;5.00;99.90;;;;;;6167781;23;20025;-91
2022/01/14 06:49:31;;;;;;;;;;;;;;;;;;;;;
2022/01/14 06:52:12;;;;;;;26.60;16.83;;;5.00;99.90;;;;;;6151939;23;20032;-90
2022/01/14 06:54:43;;;;;;;28.33;17.17;;;5.00;99.90;;;;;;6133788;23;20001;-89
2022/01/14 06:57:28;;;;;;;;;;;;;;;;;;;;;
2022/01/14 07:00:15;;;;;;;25.02;16.55;;;5.00;99.90;;;;;;6160482;23;20033;-90
2022/01/14 07:02:46;;;;;;;25.35;16.33;;;5.00;99.90;;;;;;6135784;23;20033;-91
2022/01/14 07:05:14;;;;;;;27.23;16.65;;;5.00;99.90;;;;;;6133593;23;20005;-89
2022/01/14 07:08:00;;;;;;;26.05;16.50;;;5.00;99.90;;;;;;6133260;23;20063;-91
2022/01/14 07:10:29;;;;;;;35.50;17.52;;;5.00;99.90;;;;;;6134116;23;20006;-90
2022/01/14 07:13:22;;;;;;;26.55;17.20;;;5.00;99.90;;;;;;6133126;23;20088;-91
2022/01/14 07:15:58;;;;;;;24.92;15.65;;;5.00;99.90;;;;;;6139135;23;20012;-91
2022/01/14 07:18:51;;;;;;;25.38;15.95;;;5.00;99.90;;;;;;6109573;23;20014;-91
2022/01/14 07:21:19;;;;;;;24.02;14.80;;;5.00;99.90;;;;;;6159733;23;20435;-91
2022/01/14 07:23:58;;;;;;;25.35;15.43;;;5.00;99.90;;;;;;6107772;23;20041;-91
2022/01/14 07:26:38;;;;;;;26.88;16.15;;;5.00;99.90;;;;;;6142105;23;20098;-94
2022/01/14 07:29:14;;;;;;;27.40;15.38;;;5.00;99.90;;;;;;6136768;23;19990;-90
2022/01/14 07:32:09;;;;;;;24.80;15.25;;;5.00;99.90;;;;;;6156976;23;20028;-92
2022/01/14 07:34:38;;;;;;;24.90;16.15;;;5.00;99.90;;;;;;6154770;23;20024;-90
2022/01/14 07:37:24;;;;;;;31.50;17.92;;;5.00;99.90;;;;;;6132778;23;20005;-89
2022/01/14 07:39:50;;;;;;;30.00;18.20;;;5.00;99.90;;;;;;6131930;23;20012;-91
2022/01/14 07:42:19;;;;;;;26.63;17.02;;;5.00;99.90;;;;;;6133638;23;20324;-89
2022/01/14 07:44:54;;;;;;;24.83;16.30;;;4.90;99.90;;;;;;6132822;23;20317;-90
2022/01/14 07:47:25;;;;;;;23.55;15.75;;;4.90;99.90;;;;;;6134136;23;20065;-90
2022/01/14 07:49:54;;;;;;;29.48;16.10;;;4.90;99.90;;;;;;6135387;23;20319;-90
2022/01/14 07:53:06;;;;;;;27.85;16.35;;;4.90;99.90;;;;;;6134024;23;20006;-92
2022/01/14 07:56:11;;;;;;;;;;;;;;;;;;;;;
2022/01/14 07:58:53;;;;;;;27.27;17.23;;;4.90;99.90;;;;;;6160536;23;20427;-90
2022/01/14 08:01:19;;;;;;;26.50;15.50;;;5.00;99.90;;;;;;6113379;23;20076;-88
2022/01/14 08:03:47;;;;;;;25.70;16.02;;;5.00;99.90;;;;;;6135913;23;20014;-90
2022/01/14 08:06:25;;;;;;;24.33;15.80;;;5.00;99.90;;;;;;6162631;23;20001;-90
2022/01/14 08:09:04;;;;;;;;;;;;;;;;;;;;;
2022/01/14 08:11:59;;;;;;;27.23;16.73;;;5.00;99.90;;;;;;6163689;23;20431;-93
2022/01/14 08:14:58;;;;;;;;;;;;;;;;;;;;;
2022/01/14 08:17:55;;;;;;;26.67;15.07;;;5.00;99.90;;;;;;6142966;23;20447;-89
2022/01/14 08:20:50;;;;;;;;;;;;;;;;;;;;;
2022/01/14 08:23:59;;;;;;;26.17;15.18;;;5.10;99.90;;;;;;6142065;23;20029;-91
2022/01/14 08:27:08;;;;;;;;;;;;;;;;;;;;;
2022/01/14 08:29:47;;;;;;;26.33;15.20;;;5.00;99.90;;;;;;6161844;23;20048;-90
2022/01/14 08:32:39;;;;;;;25.50;15.43;;;5.00;99.90;;;;;;6135751;23;20092;-92
2022/01/14 08:35:18;;;;;;;27.05;15.40;;;5.00;99.90;;;;;;6161140;23;20005;-91
2022/01/14 08:38:01;;;;;;;24.75;15.48;;;5.10;99.90;;;;;;6161900;23;20001;-89
2022/01/14 08:40:33;;;;;;;24.85;15.45;;;5.10;99.90;;;;;;6134668;23;20010;-89
2022/01/14 08:43:52;;;;;;;;;;;;;;;;;;;;;
2022/01/14 08:46:27;;;;;;;23.45;15.57;;;5.10;99.90;;;;;;6128597;23;20080;-91
2022/01/14 08:49:01;;;;;;;25.98;15.60;;;5.10;99.90;;;;;;6132902;23;20074;-91
2022/01/14 08:52:10;;;;;;;24.35;15.00;;;5.10;99.90;;;;;;6111698;23;19990;-93
2022/01/14 08:55:25;;;;;;;;;;;;;;;;;;;;;
2022/01/14 08:58:04;;;;;;;;;;;;;;;;;;;;;
2022/01/14 09:00:58;;;;;;;26.65;16.13;;;5.10;99.90;;;;;;6154890;23;20014;-94
2022/01/14 09:04:03;;;;;;;;;;;;;;;;;;;;;
2022/01/14 09:07:31;;;;;;;26.73;15.10;;;5.20;99.90;;;;;;6132454;23;20045;-93
2022/01/14 09:09:57;;;;;;;27.08;15.43;;;5.20;99.90;;;;;;6115197;23;20012;-89
2022/01/14 09:12:57;;;;;;;26.35;16.20;;;5.20;99.90;;;;;;6130085;23;20448;-92
2022/01/14 09:15:43;;;;;;;23.90;14.93;;;5.20;99.90;;;;;;6111137;23;20101;-91
2022/01/14 09:18:35;;;;;;;25.40;15.75;;;5.20;99.90;;;;;;6110854;23;20081;-90
2022/01/14 09:21:08;;;;;;;24.90;16.17;;;5.30;99.90;;;;;;6131987;23;20044;-91
2022/01/14 09:24:08;;;;;;;23.67;15.20;;;5.20;99.90;;;;;;6131288;23;20002;-90
2022/01/14 09:26:45;;;;;;;;;;;;;;;;;;;;;
2022/01/14 09:29:31;;;;;;;24.55;15.50;;;5.20;99.90;;;;;;6132749;23;20025;-91
2022/01/14 09:35:13;;;;;;;;;;;;;;;;;;;;;
2022/01/14 09:37:54;;;;;;;28.52;17.30;;;5.20;99.90;;;;;;6133906;23;20037;-92
2022/01/14 09:40:32;;;;;;;;;;;;;;;;;;;;;
2022/01/14 09:43:40;;;;;;;;;;;;;;;;;;;;;
2022/01/14 09:46:16;;;;;;;24.55;16.08;;;5.30;99.90;;;;;;6158986;23;20014;-92
2022/01/14 09:51:43;;;;;;;25.08;16.23;;;5.30;99.90;;;;;;6144754;23;20005;-90
2022/01/14 09:54:42;;;;;;;;;;;;;;;;;;;;;
2022/01/14 09:57:19;;;;;;;28.20;16.25;;;5.40;99.90;;;;;;6160429;23;20080;-90
2022/01/14 10:03:00;;;;;;;26.35;16.08;;;5.40;99.90;;;;;;6160908;23;20006;-91
2022/01/14 10:05:52;;;;;;;25.45;16.05;;;5.40;99.90;;;;;;6136857;23;20025;-92
2022/01/14 10:08:32;;;;;;;27.17;16.33;;;5.40;99.90;;;;;;6136417;23;20049;-90
2022/01/14 10:11:30;;;;;;;25.88;16.15;;;5.40;99.90;;;;;;6088176;23;20040;-91
2022/01/14 10:14:20;;;;;;;29.88;17.15;;;5.50;99.90;;;;;;6160487;23;20017;-92
2022/01/14 10:16:59;;;;;;;28.35;16.80;;;5.50;99.90;;;;;;6109451;23;20050;-90
2022/01/14 10:19:48;;;;;;;27.52;16.42;;;5.50;99.90;;;;;;6160655;23;20382;-89
2022/01/14 10:23:00;;;;;;;;;;;;;;;;;;;;;
2022/01/14 10:25:40;;;;;;;29.30;16.67;;;5.50;99.90;;;;;;6182777;23;20013;-91
2022/01/14 10:29:03;;;;;;;30.23;17.45;;;5.50;99.90;;;;;;6155796;23;20432;-91
2022/01/14 10:32:11;;;;;;;26.25;16.95;;;5.50;99.90;;;;;;6146205;23;20002;-93
2022/01/14 10:35:21;;;;;;;;;;;;;;;;;;;;;
2022/01/14 10:41:24;;;;;;;29.13;17.73;;;5.50;99.90;;;;;;6150315;23;20052;-90
2022/01/14 10:50:40;;;;;;;28.00;16.10;;;5.60;99.90;;;;;;6154545;23;19924;-85
2022/01/14 10:53:41;;;;;;;27.55;16.80;;;5.60;99.90;;;;;;6130907;23;20013;-87
2022/01/14 10:56:13;;;;;;;29.98;16.88;;;5.60;99.90;;;;;;6130729;23;20450;-86
2022/01/14 10:58:42;;;;;;;27.88;17.33;;;5.60;99.90;;;;;;6130370;23;20005;-85
2022/01/14 11:01:20;;;;;;;26.45;15.45;;;5.60;99.90;;;;;;6129827;23;20013;-85
2022/01/14 11:04:16;;;;;;;;;;;;;;;;;;;;;
2022/01/14 11:06:47;;;;;;;28.40;16.90;;;5.60;99.90;;;;;;6157215;23;20097;-86
2022/01/14 11:09:39;;;;;;;24.67;15.30;;;5.60;99.90;;;;;;6107525;23;20376;-86
2022/01/14 11:12:18;;;;;;;26.17;15.43;;;5.60;99.90;;;;;;6154954;23;20439;-86
2022/01/14 11:14:52;;;;;;;23.70;15.90;;;5.60;99.90;;;;;;6155063;23;20455;-87
2022/01/14 11:17:23;;;;;;;25.10;15.90;;;5.70;99.90;;;;;;6130907;23;20301;-86
2022/01/14 11:19:54;;;;;;;27.77;17.42;;;5.70;99.90;;;;;;6131732;23;20017;-85
2022/01/14 11:25:08;;;;;;;25.00;15.63;;;5.70;99.90;;;;;;6156884;23;20391;-85
2022/01/14 11:27:45;;;;;;;;;;;;;;;;;;;;;
2022/01/14 11:30:30;;;;;;;25.40;16.30;;;5.70;99.90;;;;;;6157132;23;20068;-86
2022/01/14 11:33:19;;;;;;;26.42;16.88;;;5.70;99.90;;;;;;6130645;23;20012;-89
2022/01/14 11:36:12;;;;;;;26.92;17.00;;;5.70;99.90;;;;;;6155909;23;20412;-87
2022/01/14 11:42:22;;;;;;;27.73;16.52;;;5.70;99.90;;;;;;6158615;23;20013;-87
2022/01/14 11:45:22;;;;;;;;;;;;;;;;;;;;;
2022/01/14 11:48:17;;;;;;;;;;;;;;;;;;;;;
2022/01/14 11:51:21;;;;;;;;;;;;;;;;;;;;;
2022/01/14 11:54:33;;;;;;;27.95;16.83;;;5.80;99.90;;;;;;6166268;23;20006;-88
2022/01/14 11:57:29;;;;;;;27.98;17.67;;;5.80;99.90;;;;;;6143878;23;19990;-88
2022/01/14 12:00:07;;;;;;;;;;;;;;;;;;;;;
2022/01/14 12:03:11;;;;;;;;;;;;;;;;;;;;;
2022/01/14 12:06:09;;;;;;;;;;;;;;;;;;;;;
2022/01/14 12:09:12;;;;;;;31.42;20.40;;;5.80;99.90;;;;;;6159369;23;20125;-87
2022/01/14 12:11:44;;;;;;;31.52;19.02;;;5.90;99.90;;;;;;6112217;23;20012;-86
2022/01/14 12:14:33;;;;;;;27.15;18.17;;;5.90;99.90;;;;;;6132254;23;20014;-86
2022/01/14 12:17:19;;;;;;;28.33;18.17;;;5.90;99.90;;;;;;6131755;23;20033;-87
2022/01/14 12:20:27;;;;;;;;;;;;;;;;;;;;;
2022/01/14 12:23:36;;;;;;;25.55;17.25;;;5.90;99.90;;;;;;6096255;23;20398;-88
2022/01/14 12:26:23;;;;;;;28.77;17.73;;;5.90;99.90;;;;;;6139387;23;20018;-88
2022/01/14 12:29:11;;;;;;;25.73;16.75;;;5.90;99.90;;;;;;6131448;23;20012;-86
2022/01/14 12:32:15;;;;;;;27.90;17.40;;;5.90;99.90;;;;;;6131739;23;20384;-88
2022/01/14 12:34:59;;;;;;;24.73;16.30;;;6.00;99.90;;;;;;6157817;23;20001;-86
2022/01/14 12:37:46;;;;;;;27.73;17.35;;;6.00;99.90;;;;;;6132593;23;20036;-85
2022/01/14 12:40:13;;;;;;;25.00;17.20;;;6.00;99.90;;;;;;6109756;23;20012;-85
2022/01/14 12:42:44;;;;;;;27.60;17.35;;;6.00;99.90;;;;;;6131843;23;20005;-86
2022/01/14 12:45:26;;;;;;;27.15;17.45;;;6.00;99.90;;;;;;6132178;23;20479;-86
2022/01/14 12:48:39;;;;;;;25.98;18.02;;;6.00;99.90;;;;;;6131635;23;20005;-85
2022/01/14 12:51:21;;;;;;;26.27;16.75;;;6.00;99.90;;;;;;6153812;23;20013;-86
2022/01/14 12:54:12;;;;;;;27.25;17.13;;;6.00;99.90;;;;;;6132247;23;20002;-86
2022/01/14 12:56:57;;;;;;;54.33;33.67;;;6.00;99.90;;;;;;6132141;23;20006;-86
2022/01/14 12:59:25;;;;;;;37.92;24.30;;;6.00;99.90;;;;;;6131981;23;20612;-85
2022/01/14 13:02:00;;;;;;;34.58;21.83;;;6.00;99.90;;;;;;6132028;23;20315;-85
2022/01/14 13:04:33;;;;;;;32.10;19.60;;;6.10;99.90;;;;;;6132827;23;20006;-86
2022/01/14 13:07:03;;;;;;;30.00;18.88;;;6.10;99.90;;;;;;6109710;23;20013;-85
2022/01/14 13:09:38;;;;;;;28.00;18.88;;;6.10;99.90;;;;;;6132019;23;20002;-86
2022/01/14 13:12:21;;;;;;;;;;;;;;;;;;;;;
2022/01/14 13:15:00;;;;;;;25.40;16.63;;;6.10;99.90;;;;;;6158693;23;20088;-87
2022/01/14 13:17:40;;;;;;;30.02;17.95;;;6.10;99.90;;;;;;6132901;23;20028;-86
2022/01/14 13:20:10;;;;;;;29.20;18.60;;;6.10;99.90;;;;;;6136070;23;20025;-86
2022/01/14 13:22:47;;;;;;;;;;;;;;;;;;;;;
2022/01/14 13:25:22;;;;;;;25.52;16.52;;;6.20;99.90;;;;;;6184303;23;20009;-86
2022/01/14 13:27:57;;;;;;;24.48;16.30;;;6.20;99.90;;;;;;6159066;23;19997;-86
2022/01/14 13:30:46;;;;;;;30.52;17.92;;;6.20;99.90;;;;;;6144699;23;20271;-86
2022/01/14 13:33:20;;;;;;;24.27;16.20;;;6.20;99.90;;;;;;6157540;23;19998;-87
2022/01/14 13:35:54;;;;;;;25.15;16.55;;;6.20;99.90;;;;;;6107747;23;20435;-86
2022/01/14 13:38:30;;;;;;;25.73;17.23;;;6.20;99.90;;;;;;6131343;23;20009;-86
2022/01/14 13:41:33;;;;;;;24.85;16.95;;;6.20;99.90;;;;;;6131288;23;20371;-86
2022/01/14 13:44:30;;;;;;;25.75;16.63;;;6.20;99.90;;;;;;6155699;23;20048;-86
2022/01/14 13:47:11;;;;;;;27.77;17.38;;;6.30;99.90;;;;;;6130958;23;20005;-85
2022/01/14 13:49:57;;;;;;;27.85;18.92;;;6.20;99.90;;;;;;6133801;23;20014;-87
2022/01/14 13:52:44;;;;;;;28.40;17.90;;;6.20;99.90;;;;;;6129410;23;20009;-86
2022/01/14 13:55:35;;;;;;;29.33;18.17;;;6.20;99.90;;;;;;6130880;23;20029;-87
2022/01/14 13:58:16;;;;;;;28.20;17.55;;;6.20;99.90;;;;;;6130871;23;20512;-86
2022/01/14 14:00:45;;;;;;;;;;;6.20;99.90;;;;;;6131390;23;20005;-86
2022/01/14 14:03:52;;;;;;;23.50;16.58;;;6.20;99.90;;;;;;6131404;23;19980;-87
2022/01/14 14:06:57;;;;;;;26.63;17.60;;;6.20;99.90;;;;;;6154224;23;20016;-87
2022/01/14 14:09:39;;;;;;;;;;;;;;;;;;;;;
2022/01/14 14:15:56;;;;;;;25.77;17.45;;;6.20;99.90;;;;;;6157802;23;20009;-86
2022/01/14 14:18:44;;;;;;;25.65;16.88;;;6.20;99.90;;;;;;6155015;23;20005;-88
2022/01/14 14:27:27;;;;;;;24.10;17.05;;;6.20;99.90;;;;;;6141565;23;20068;-88
2022/01/14 14:29:57;;;;;;;25.50;17.60;;;6.20;99.90;;;;;;6131249;23;20005;-87
2022/01/14 14:32:31;;;;;;;32.75;18.05;;;6.20;99.90;;;;;;6130846;23;20021;-86
2022/01/14 14:35:34;;;;;;;25.50;17.45;;;6.20;99.90;;;;;;6131468;23;20002;-88
2022/01/14 14:38:11;;;;;;;27.85;18.05;;;6.30;99.90;;;;;;6152351;23;20001;-88
2022/01/14 14:46:57;;;;;;;27.75;17.70;;;6.20;99.90;;;;;;6149921;23;20022;-87
2022/01/14 14:50:08;;;;;;;26.58;17.92;;;6.20;99.90;;;;;;6136385;23;20069;-87
2022/01/14 14:55:29;;;;;;;28.15;17.88;;;6.20;99.90;;;;;;6141499;23;20065;-87
2022/01/14 14:57:58;;;;;;;28.65;17.92;;;6.20;99.90;;;;;;6153194;23;20017;-86
2022/01/14 15:00:24;;;;;;;27.20;18.30;;;6.20;99.90;;;;;;6147470;23;20021;-87
2022/01/14 15:03:06;;;;;;;;;;;;;;;;;;;;;
2022/01/14 15:05:40;;;;;;;;;;;6.20;99.90;;;;;;6156767;23;20072;-86
2022/01/14 15:08:16;;;;;;;27.35;17.80;;;6.20;99.90;;;;;;6130644;23;19904;-86
2022/01/14 15:10:57;;;;;;;;;;;;;;;;;;;;;
2022/01/14 15:13:35;;;;;;;28.65;19.00;;;6.20;99.90;;;;;;6133448;23;20430;-87
2022/01/14 15:19:21;;;;;;;;;;;;;;;;;;;;;
2022/01/14 15:21:47;;;;;;;29.17;18.77;;;6.20;99.90;;;;;;6132613;23;20077;-87
2022/01/14 15:24:13;;;;;;;29.10;19.00;;;6.20;99.90;;;;;;6130043;23;20044;-86
2022/01/14 15:26:43;;;;;;;25.50;17.20;;;6.20;99.90;;;;;;6130095;23;20009;-87
2022/01/14 15:29:17;;;;;;;25.30;17.73;;;6.20;99.90;;;;;;6131072;23;20451;-87
2022/01/14 15:31:49;;;;;;;26.35;16.88;;;6.20;99.90;;;;;;6130401;23;20025;-87
2022/01/14 15:34:19;;;;;;;27.77;18.48;;;6.20;99.90;;;;;;6129806;23;20364;-87
2022/01/14 15:36:50;;;;;;;28.60;18.83;;;6.20;99.90;;;;;;6106643;23;20156;-88
2022/01/14 15:39:22;;;;;;;27.02;17.42;;;6.20;99.90;;;;;;6130208;23;20081;-88
2022/01/14 15:41:48;;;;;;;28.45;18.50;;;6.20;99.90;;;;;;6130414;23;20327;-87
2022/01/14 15:44:16;;;;;;;24.67;17.40;;;6.20;99.90;;;;;;6130159;23;20451;-88
2022/01/14 15:46:42;;;;;;;26.67;18.20;;;6.20;99.90;;;;;;6130364;23;20005;-87
2022/01/14 15:49:18;;;;;;;27.92;18.45;;;6.20;99.90;;;;;;6130102;23;20450;-88
2022/01/14 15:52:11;;;;;;;28.63;18.02;;;6.20;99.90;;;;;;6126661;23;20025;-88
2022/01/14 15:54:52;;;;;;;26.92;17.63;;;6.20;99.90;;;;;;6100700;23;20006;-87
2022/01/14 15:57:29;;;;;;;28.30;18.10;;;6.20;99.90;;;;;;6101050;23;20037;-88
2022/01/14 16:00:05;;;;;;;27.15;17.85;;;6.20;99.90;;;;;;6127010;23;20005;-87
2022/01/14 16:02:53;;;;;;;26.13;18.55;;;6.20;99.90;;;;;;6102567;23;20052;-87
2022/01/14 16:05:29;;;;;;;25.42;17.33;;;6.20;99.90;;;;;;6126578;23;20332;-86
2022/01/14 16:08:02;;;;;;;31.38;18.52;;;6.20;99.90;;;;;;6100809;23;20064;-87
2022/01/14 16:10:53;;;;;;;27.73;17.92;;;6.20;99.90;;;;;;6100260;23;20006;-87
2022/01/14 16:13:24;;;;;;;30.58;18.00;;;6.20;99.90;;;;;;6078607;23;20010;-87
2022/01/14 16:15:52;;;;;;;;;;;6.20;99.90;;;;;;6101521;23;20010;-88
2022/01/14 16:18:20;;;;;;;28.40;18.05;;;6.10;99.90;;;;;;6125549;23;19901;-87
2022/01/14 16:20:58;;;;;;;29.33;17.92;;;6.20;99.90;;;;;;6105481;23;20002;-87
2022/01/14 16:23:25;;;;;;;29.05;18.80;;;6.10;99.90;;;;;;6106478;23;20029;-88
2022/01/14 16:26:04;;;;;;;29.02;19.65;;;6.20;99.90;;;;;;6129927;23;20005;-88
2022/01/14 16:28:43;;;;;;;28.83;19.45;;;6.10;99.90;;;;;;6128603;23;20074;-82
2022/01/14 16:31:12;;;;;;;27.10;18.75;;;6.10;99.90;;;;;;6112704;23;20006;-86
2022/01/14 16:34:19;;;;;;;;;;;;;;;;;;;;;
2022/01/14 16:36:54;;;;;;;;;;;;;;;;;;;;;
2022/01/14 16:39:43;;;;;;;;;;;;;;;;;;;;;
2022/01/14 16:42:20;;;;;;;30.27;20.98;;;6.10;99.90;;;;;;6128394;23;20073;-87
2022/01/14 16:44:59;;;;;;;29.85;19.02;;;6.10;99.90;;;;;;6079253;23;20516;-87
2022/01/14 16:47:46;;;;;;;;;;;;;;;;;;;;;
2022/01/14 16:53:19;;;;;;;30.80;20.55;;;6.10;99.90;;;;;;6112483;23;20014;-88
2022/01/14 16:55:45;;;;;;;30.13;18.80;;;6.10;99.90;;;;;;6126632;23;20146;-87
2022/01/14 16:58:27;;;;;;;29.98;18.70;;;6.10;99.90;;;;;;6126402;23;20321;-87
2022/01/14 17:00:55;;;;;;;29.27;18.80;;;6.10;99.90;;;;;;6128090;23;20325;-87
2022/01/14 17:03:29;;;;;;;27.10;18.95;;;6.10;99.90;;;;;;6103060;23;20041;-88
2022/01/14 17:06:08;;;;;;;27.77;19.58;;;6.10;99.90;;;;;;6126633;23;20009;-88
2022/01/14 17:11:39;;;;;;;;;;;;;;;;;;;;;
2022/01/14 17:14:05;;;;;;;29.20;19.13;;;6.20;99.90;;;;;;6128121;23;20074;-88
2022/01/14 17:16:45;;;;;;;31.70;21.23;;;6.20;99.90;;;;;;6127780;23;20321;-87
2022/01/14 17:19:18;;;;;;;28.67;20.35;;;6.10;99.90;;;;;;6127011;23;20314;-88
2022/01/14 17:22:14;;;;;;;;;;;;;;;;;;;;;
2022/01/14 17:24:49;;;;;;;28.35;19.58;;;6.10;99.90;;;;;;6127705;23;20511;-87
2022/01/14 17:27:35;;;;;;;28.35;19.55;;;6.20;99.90;;;;;;6126287;23;20017;-86
2022/01/14 17:30:04;;;;;;;29.67;18.75;;;6.10;99.90;;;;;;6105378;23;20014;-88
2022/01/14 17:32:40;;;;;;;29.70;19.65;;;6.10;99.90;;;;;;6126707;23;20006;-88
2022/01/14 17:35:13;;;;;;;29.77;19.35;;;6.20;99.90;;;;;;6126666;23;20010;-88
2022/01/14 17:37:55;;;;;;;;;;;;;;;;;;;;;
2022/01/14 17:40:28;;;;;;;;;;;6.10;99.90;;;;;;6127859;23;20495;-87
2022/01/14 17:43:21;;;;;;;;;;;;;;;;;;;;;
2022/01/14 17:45:50;;;;;;;30.63;19.50;;;6.10;99.90;;;;;;6129155;23;20058;-87
2022/01/14 17:48:45;;;;;;;30.40;18.65;;;6.10;99.90;;;;;;6128421;23;20002;-87
2022/01/14 17:51:40;;;;;;;;;;;;;;;;;;;;;
2022/01/14 17:54:14;;;;;;;26.98;17.90;;;6.20;99.90;;;;;;6139941;23;19985;-88
2022/01/14 17:56:53;;;;;;;30.77;20.02;;;6.20;99.90;;;;;;6156759;23;20006;-88
2022/01/14 17:59:28;;;;;;;27.70;18.20;;;6.20;99.90;;;;;;6133295;23;20001;-85
2022/01/14 18:02:27;;;;;;;;;;;;;;;;;;;;;
2022/01/14 18:05:17;;;;;;;28.60;18.90;;;6.20;99.90;;;;;;6157678;23;20089;-87
2022/01/14 18:08:20;;;;;;;32.10;20.05;;;6.20;99.90;;;;;;6131310;23;20006;-88
2022/01/14 18:12:19;;;;;;;30.55;21.00;;;6.20;99.90;;;;;;6135113;23;20029;-88
2022/01/14 18:14:44;;;;;;;;;;;;;;;;;;;;;
2022/01/14 18:17:20;;;;;;;26.17;18.58;;;6.20;99.90;;;;;;6156981;23;20372;-87
2022/01/14 18:20:15;;;;;;;24.98;17.77;;;6.20;99.90;;;;;;6106886;23;20499;-87
2022/01/14 18:22:52;;;;;;;26.05;18.05;;;6.20;99.90;;;;;;6156071;23;20376;-87
2022/01/14 18:25:23;;;;;;;29.55;19.83;;;6.20;99.90;;;;;;6130915;23;20413;-88
2022/01/14 18:28:24;;;;;;;27.63;18.33;;;6.20;99.90;;;;;;6130690;23;20421;-88
2022/01/14 18:30:58;;;;;;;28.80;19.92;;;6.20;99.90;;;;;;6108144;23;20008;-88
2022/01/14 18:33:59;;;;;;;32.45;20.50;;;6.20;99.90;;;;;;6107704;23;20005;-87
2022/01/14 18:36:30;;;;;;;32.17;20.10;;;6.20;99.90;;;;;;6156945;23;20005;-88
2022/01/14 18:39:02;;;;;;;29.38;19.67;;;6.20;99.90;;;;;;6106135;23;20551;-88
2022/01/14 18:41:37;;;;;;;29.10;19.58;;;6.20;99.90;;;;;;6107938;23;20037;-87
2022/01/14 18:44:38;;;;;;;;;;;;;;;;;;;;;
2022/01/14 18:47:15;;;;;;;32.97;21.30;;;6.20;99.90;;;;;;6156904;23;20099;-87
2022/01/14 18:50:01;;;;;;;;;;;;;;;;;;;;;
2022/01/14 18:52:49;;;;;;;;;;;;;;;;;;;;;
2022/01/14 18:59:00;;;;;;;30.90;20.77;;;6.20;99.90;;;;;;6133689;23;20013;-87
2022/01/14 19:01:45;;;;;;;;;;;;;;;;;;;;;
2022/01/14 19:04:34;;;;;;;29.33;20.65;;;6.20;99.90;;;;;;6157617;23;20088;-87
2022/01/14 19:10:56;;;;;;;;;;;;;;;;;;;;;
2022/01/14 19:26:32;;;;;;;;;;;;;;;;;;;;;
2022/01/14 19:29:26;;;;;;;35.65;22.27;;;6.20;99.90;;;;;;6170338;23;20006;-87
2022/01/14 19:35:12;;;;;;;33.63;21.30;;;6.20;99.90;;;;;;6126468;23;20040;-88
2022/01/14 19:37:47;;;;;;;35.05;22.50;;;6.20;99.90;;;;;;6130685;23;20001;-88
2022/01/14 19:41:02;;;;;;;33.60;21.33;;;6.20;99.90;;;;;;6130456;23;20301;-87
2022/01/14 19:43:56;;;;;;;31.77;20.80;;;6.20;99.90;;;;;;6155259;23;20040;-88
2022/01/14 19:49:36;;;;;;;34.45;21.92;;;6.20;99.90;;;;;;6156141;23;20009;-89
2022/01/14 19:52:05;;;;;;;32.03;21.38;;;6.20;99.90;;;;;;6130367;23;20080;-88